Time;durP1;ratioP1;P1;durP2;ratioP2;P2;SDS_P1;SDS_P2;PMS_P1;PMS_P2;Temp;Humidity;BMP_temperature;BMP_pressure;BME280_temperature;BME280_humidity;BME280_pressure;Samples;Min_cycle;Max_cycle;Signal;HPM_P1;HPM_P2
2023/09/20 00:00:35;;;;;;;0.98;0.93;;;;;;;;;;5045695;28;20071;-85
2023/09/20 00:03:00;;;;;;;1.23;0.80;;;;;;;;;;5045955;28;20043;-85
2023/09/20 00:05:26;;;;;;;1.73;1.10;;;;;;;;;;5041516;28;20033;-85
2023/09/20 00:07:56;;;;;;;1.42;0.95;;;;;;;;;;5057233;28;20514;-85
2023/09/20 00:10:22;;;;;;;1.40;0.95;;;;;;;;;;5065668;28;20048;-86
2023/09/20 00:12:48;;;;;;;0.98;0.90;;;;;;;;;;5070922;28;20074;-86
2023/09/20 00:15:13;;;;;;;3.13;0.95;;;;;;;;;;5057964;28;20021;-85
2023/09/20 00:17:39;;;;;;;1.10;1.00;;;;;;;;;;5043348;28;20609;-85
2023/09/20 00:20:12;;;;;;;1.88;1.00;;;;;;;;;;5056327;28;20017;-85
2023/09/20 00:22:43;;;;;;;0.95;0.80;;;;;;;;;;5057512;28;20029;-85
2023/09/20 00:25:13;;;;;;;0.82;0.80;;;;;;;;;;5042765;28;20025;-84
2023/09/20 00:27:40;;;;;;;0.95;0.93;;;;;;;;;;5057464;28;20374;-85
2023/09/20 00:30:10;;;;;;;1.67;1.30;;;;;;;;;;5066354;28;20467;-85
2023/09/20 00:32:39;;;;;;;0.80;0.80;;;;;;;;;;5061968;28;20040;-84
2023/09/20 00:35:07;;;;;;;2.13;1.15;;;;;;;;;;5047084;28;20025;-85
2023/09/20 00:37:39;;;;;;;1.20;1.10;;;;;;;;;;5048647;28;20013;-84
2023/09/20 00:40:37;;;;;;;1.55;1.10;;;;;;;;;;5038608;28;20029;-84
2023/09/20 00:43:08;;;;;;;1.40;0.73;;;;;;;;;;5048753;28;20043;-84
2023/09/20 00:45:35;;;;;;;0.95;0.93;;;;;;;;;;5047619;28;20025;-85
2023/09/20 00:48:02;;;;;;;1.52;1.00;;;;;;;;;;5061685;28;20444;-86
2023/09/20 00:50:31;;;;;;;1.70;1.25;;;;;;;;;;5063960;28;20051;-86
2023/09/20 00:52:58;;;;;;;1.05;0.80;;;;;;;;;;5058793;28;20030;-86
2023/09/20 00:55:27;;;;;;;0.52;0.52;;;;;;;;;;5056140;28;20036;-86
2023/09/20 00:57:56;;;;;;;1.42;1.00;;;;;;;;;;5046663;28;20033;-86
2023/09/20 01:00:28;;;;;;;1.25;0.77;;;;;;;;;;5063907;28;20060;-86
2023/09/20 01:02:55;;;;;;;1.77;1.10;;;;;;;;;;5063495;28;20029;-86
2023/09/20 01:05:21;;;;;;;0.55;0.55;;;;;;;;;;5067369;28;20032;-87
2023/09/20 01:07:56;;;;;;;0.70;0.70;;;;;;;;;;5046531;28;20079;-86
2023/09/20 01:10:24;;;;;;;1.45;0.93;;;;;;;;;;5062065;28;20030;-86
2023/09/20 01:13:04;;;;;;;0.75;0.75;;;;;;;;;;5060294;28;20032;-86
2023/09/20 01:15:31;;;;;;;1.70;0.93;;;;;;;;;;5022731;28;20506;-85
2023/09/20 01:17:58;;;;;;;1.75;0.82;;;;;;;;;;5042398;28;20037;-86
2023/09/20 01:20:24;;;;;;;1.05;0.82;;;;;;;;;;5062254;28;20098;-86
2023/09/20 01:22:53;;;;;;;1.00;0.85;;;;;;;;;;5042210;28;20056;-86
2023/09/20 01:25:24;;;;;;;1.92;0.80;;;;;;;;;;5062713;28;20038;-86
2023/09/20 01:27:56;;;;;;;1.33;0.85;;;;;;;;;;5036438;28;20034;-85
2023/09/20 01:30:26;;;;;;;0.80;0.80;;;;;;;;;;5037463;28;20381;-85
2023/09/20 01:32:53;;;;;;;0.73;0.73;;;;;;;;;;5037003;28;20034;-86
2023/09/20 01:35:19;;;;;;;0.80;0.80;;;;;;;;;;5056241;28;20056;-86
2023/09/20 01:37:44;;;;;;;1.77;0.75;;;;;;;;;;5043864;28;20029;-86
2023/09/20 01:40:16;;;;;;;1.35;1.13;;;;;;;;;;5059581;28;20033;-86
2023/09/20 01:42:43;;;;;;;1.30;1.10;;;;;;;;;;5059766;28;20025;-86
2023/09/20 01:45:16;;;;;;;0.90;0.90;;;;;;;;;;5047128;28;20025;-85
2023/09/20 01:47:49;;;;;;;2.75;0.70;;;;;;;;;;5061639;28;20029;-85
2023/09/20 01:50:25;;;;;;;1.38;0.73;;;;;;;;;;5057360;28;20108;-85
2023/09/20 01:52:55;;;;;;;1.10;0.82;;;;;;;;;;5045977;28;20083;-85
2023/09/20 01:55:24;;;;;;;1.80;0.80;;;;;;;;;;5035664;28;20132;-85
2023/09/20 01:57:52;;;;;;;1.45;1.10;;;;;;;;;;5070870;28;20032;-84
2023/09/20 02:00:22;;;;;;;0.82;0.75;;;;;;;;;;5047033;28;20033;-85
2023/09/20 02:02:55;;;;;;;0.85;0.50;;;;;;;;;;5056793;28;20067;-85
2023/09/20 02:05:23;;;;;;;0.95;0.80;;;;;;;;;;5038387;28;20036;-86
2023/09/20 02:07:50;;;;;;;1.75;1.17;;;;;;;;;;5043346;28;20052;-86
2023/09/20 02:10:16;;;;;;;2.92;1.00;;;;;;;;;;5043937;28;20013;-85
2023/09/20 02:12:56;;;;;;;1.00;0.90;;;;;;;;;;5052526;28;20032;-85
2023/09/20 02:15:27;;;;;;;1.48;0.93;;;;;;;;;;5056204;28;20083;-86
2023/09/20 02:17:52;;;;;;;3.25;0.98;;;;;;;;;;5037420;28;20037;-84
2023/09/20 02:20:20;;;;;;;1.27;0.88;;;;;;;;;;5042808;28;20083;-86
2023/09/20 02:22:47;;;;;;;2.85;1.10;;;;;;;;;;5042686;28;20025;-85
2023/09/20 02:25:14;;;;;;;0.95;0.93;;;;;;;;;;5061556;28;20390;-84
2023/09/20 02:27:42;;;;;;;0.80;0.60;;;;;;;;;;5059240;28;20033;-86
2023/09/20 02:30:11;;;;;;;0.60;0.60;;;;;;;;;;5043742;28;20017;-85
2023/09/20 02:32:36;;;;;;;0.77;0.77;;;;;;;;;;5064669;28;20033;-84
2023/09/20 02:35:04;;;;;;;0.95;0.85;;;;;;;;;;5047477;28;20021;-85
2023/09/20 02:37:34;;;;;;;1.15;1.05;;;;;;;;;;5061528;28;20032;-85
2023/09/20 02:39:59;;;;;;;1.13;0.70;;;;;;;;;;5058434;28;20140;-85
2023/09/20 02:42:26;;;;;;;0.77;0.68;;;;;;;;;;5058255;28;20057;-85
2023/09/20 02:44:53;;;;;;;0.70;0.70;;;;;;;;;;5053707;28;20092;-84
2023/09/20 02:47:19;;;;;;;1.00;0.82;;;;;;;;;;5038894;28;20025;-85
2023/09/20 02:49:50;;;;;;;1.55;1.15;;;;;;;;;;5042768;28;20104;-85
2023/09/20 02:52:19;;;;;;;1.33;1.10;;;;;;;;;;5042959;28;20033;-84
2023/09/20 02:54:44;;;;;;;1.42;1.15;;;;;;;;;;5041009;28;20440;-86
2023/09/20 02:57:11;;;;;;;1.17;0.90;;;;;;;;;;5056916;28;20036;-85
2023/09/20 02:59:38;;;;;;;1.23;1.08;;;;;;;;;;5041752;28;20075;-85
2023/09/20 03:02:04;;;;;;;1.30;1.08;;;;;;;;;;5027183;28;20037;-84
2023/09/20 03:04:29;;;;;;;1.60;1.30;;;;;;;;;;5063253;28;20032;-84
2023/09/20 03:06:54;;;;;;;1.98;0.93;;;;;;;;;;5044560;28;20029;-86
2023/09/20 03:09:23;;;;;;;1.10;1.00;;;;;;;;;;5038842;28;20037;-84
2023/09/20 03:11:49;;;;;;;2.17;1.10;;;;;;;;;;5042521;28;20043;-85
2023/09/20 03:14:14;;;;;;;1.33;1.17;;;;;;;;;;5035794;28;20037;-86
2023/09/20 03:16:41;;;;;;;1.23;1.00;;;;;;;;;;5041047;28;20029;-85
2023/09/20 03:19:09;;;;;;;0.95;0.95;;;;;;;;;;5051016;28;20047;-84
2023/09/20 03:21:35;;;;;;;0.75;0.75;;;;;;;;;;5072897;28;20010;-84
2023/09/20 03:24:00;;;;;;;1.48;1.23;;;;;;;;;;5080373;28;20037;-85
2023/09/20 03:26:25;;;;;;;0.82;0.80;;;;;;;;;;5061989;28;20030;-86
2023/09/20 03:28:56;;;;;;;1.63;1.00;;;;;;;;;;5046893;28;20041;-86
2023/09/20 03:31:22;;;;;;;0.98;0.98;;;;;;;;;;5061560;28;20032;-85
2023/09/20 03:33:47;;;;;;;0.98;0.98;;;;;;;;;;5060724;28;20069;-85
2023/09/20 03:36:15;;;;;;;1.40;1.10;;;;;;;;;;5066786;28;20025;-85
2023/09/20 03:38:41;;;;;;;1.02;0.93;;;;;;;;;;5063323;28;20033;-85
2023/09/20 03:41:07;;;;;;;4.47;1.30;;;;;;;;;;5059324;28;20027;-85
2023/09/20 03:43:32;;;;;;;1.23;1.05;;;;;;;;;;5051376;28;20048;-86
2023/09/20 03:45:58;;;;;;;1.08;0.88;;;;;;;;;;5043657;28;20061;-85
2023/09/20 03:48:23;;;;;;;2.58;1.33;;;;;;;;;;5035484;28;20032;-86
2023/09/20 03:50:49;;;;;;;1.95;1.02;;;;;;;;;;5067221;28;20506;-86
2023/09/20 03:53:15;;;;;;;1.65;1.23;;;;;;;;;;5032482;28;20035;-85
2023/09/20 03:55:41;;;;;;;1.63;1.00;;;;;;;;;;5062418;28;20033;-85
2023/09/20 03:58:06;;;;;;;1.50;1.33;;;;;;;;;;5048499;28;20053;-86
2023/09/20 04:00:32;;;;;;;1.25;1.02;;;;;;;;;;5052581;28;20082;-86
2023/09/20 04:02:58;;;;;;;1.30;1.20;;;;;;;;;;5048102;28;20629;-86
2023/09/20 04:05:24;;;;;;;1.05;0.88;;;;;;;;;;5048632;28;20094;-86
2023/09/20 04:07:50;;;;;;;1.73;1.20;;;;;;;;;;5071434;28;20037;-85
2023/09/20 04:10:17;;;;;;;1.17;0.95;;;;;;;;;;5064291;28;20033;-84
2023/09/20 04:12:42;;;;;;;1.20;1.10;;;;;;;;;;5075711;28;20025;-85
2023/09/20 04:15:08;;;;;;;2.22;1.15;;;;;;;;;;5070102;28;20112;-85
2023/09/20 04:17:35;;;;;;;1.85;1.30;;;;;;;;;;5064263;28;20495;-85
2023/09/20 04:20:11;;;;;;;3.03;1.83;;;;;;;;;;5063555;28;20017;-83
2023/09/20 04:22:41;;;;;;;1.52;1.35;;;;;;;;;;5065608;28;20375;-83
2023/09/20 04:25:06;;;;;;;1.65;1.40;;;;;;;;;;5050466;28;20121;-84
2023/09/20 04:27:32;;;;;;;1.30;1.20;;;;;;;;;;5065003;28;20047;-85
2023/09/20 04:29:58;;;;;;;7.65;1.20;;;;;;;;;;5046619;28;20081;-85
2023/09/20 04:32:23;;;;;;;1.58;1.33;;;;;;;;;;5061304;28;20033;-85
2023/09/20 04:34:53;;;;;;;2.53;1.27;;;;;;;;;;5046176;28;20024;-85
2023/09/20 04:37:19;;;;;;;1.80;1.15;;;;;;;;;;5057505;28;20029;-85
2023/09/20 04:39:45;;;;;;;1.42;1.10;;;;;;;;;;5057679;28;20047;-85
2023/09/20 04:42:13;;;;;;;0.82;0.82;;;;;;;;;;5047533;28;20097;-86
2023/09/20 04:44:39;;;;;;;1.85;1.02;;;;;;;;;;5045709;28;20085;-85
2023/09/20 04:47:04;;;;;;;0.93;0.88;;;;;;;;;;5063809;28;20045;-84
2023/09/20 04:49:29;;;;;;;2.40;1.15;;;;;;;;;;5061765;28;20032;-84
2023/09/20 04:51:55;;;;;;;4.15;1.30;;;;;;;;;;5052939;28;20041;-84
2023/09/20 04:54:23;;;;;;;1.23;1.13;;;;;;;;;;5046357;28;20066;-85
2023/09/20 04:56:48;;;;;;;1.40;1.30;;;;;;;;;;5049644;28;20084;-85
2023/09/20 04:59:14;;;;;;;1.23;1.02;;;;;;;;;;5063773;28;20025;-85
2023/09/20 05:01:42;;;;;;;1.15;1.05;;;;;;;;;;5056372;28;20047;-84
2023/09/20 05:04:08;;;;;;;0.93;0.90;;;;;;;;;;5061182;28;20075;-85
2023/09/20 05:06:33;;;;;;;1.27;1.20;;;;;;;;;;5042635;28;20534;-84
2023/09/20 05:08:58;;;;;;;2.60;1.50;;;;;;;;;;5046812;28;20052;-85
2023/09/20 05:11:24;;;;;;;0.85;0.85;;;;;;;;;;5060032;28;20068;-85
2023/09/20 05:13:51;;;;;;;1.48;1.38;;;;;;;;;;5058855;28;20035;-84
2023/09/20 05:16:17;;;;;;;2.40;1.40;;;;;;;;;;5044166;28;20055;-84
2023/09/20 05:18:42;;;;;;;2.13;1.27;;;;;;;;;;5035908;28;20024;-86
2023/09/20 05:21:09;;;;;;;1.88;1.17;;;;;;;;;;5046800;28;20112;-84
2023/09/20 05:23:35;;;;;;;1.20;1.10;;;;;;;;;;5055763;28;20031;-85
2023/09/20 05:26:00;;;;;;;1.67;1.30;;;;;;;;;;5058437;28;20025;-84
2023/09/20 05:28:26;;;;;;;2.03;1.40;;;;;;;;;;5045803;28;20478;-86
2023/09/20 05:30:52;;;;;;;1.38;1.17;;;;;;;;;;5042122;28;20029;-85
2023/09/20 05:33:17;;;;;;;1.73;1.35;;;;;;;;;;5046897;28;20031;-84
2023/09/20 05:35:43;;;;;;;1.58;1.48;;;;;;;;;;5045786;28;20462;-85
2023/09/20 05:38:10;;;;;;;2.38;1.60;;;;;;;;;;5059364;28;20023;-85
2023/09/20 05:40:36;;;;;;;3.15;1.30;;;;;;;;;;5064796;28;20029;-85
2023/09/20 05:43:03;;;;;;;2.00;1.35;;;;;;;;;;5062659;28;20048;-85
2023/09/20 05:45:30;;;;;;;1.55;1.40;;;;;;;;;;5061760;28;20441;-86
2023/09/20 05:47:57;;;;;;;3.38;1.55;;;;;;;;;;5047702;28;20029;-86
2023/09/20 05:50:23;;;;;;;1.42;1.33;;;;;;;;;;5041522;28;20036;-85
2023/09/20 05:52:51;;;;;;;3.15;1.60;;;;;;;;;;5040745;28;20497;-86
2023/09/20 05:55:22;;;;;;;1.58;1.38;;;;;;;;;;5058797;28;20100;-86
2023/09/20 05:57:48;;;;;;;1.75;1.30;;;;;;;;;;5050466;28;20060;-85
2023/09/20 06:00:18;;;;;;;1.80;1.08;;;;;;;;;;5057409;28;20649;-85
2023/09/20 06:02:45;;;;;;;1.33;1.20;;;;;;;;;;5059205;28;20375;-86
2023/09/20 06:05:14;;;;;;;1.73;1.30;;;;;;;;;;5041811;28;20028;-85
2023/09/20 06:07:40;;;;;;;1.85;1.20;;;;;;;;;;5061991;28;20017;-85
2023/09/20 06:10:09;;;;;;;5.00;1.58;;;;;;;;;;5063310;28;20128;-86
2023/09/20 06:12:34;;;;;;;3.53;1.85;;;;;;;;;;5059412;28;20024;-86
2023/09/20 06:14:59;;;;;;;1.77;1.33;;;;;;;;;;5028110;28;20029;-85
2023/09/20 06:17:32;;;;;;;3.13;1.55;;;;;;;;;;5055329;28;20402;-86
2023/09/20 06:20:01;;;;;;;2.20;1.40;;;;;;;;;;5038982;28;20090;-86
2023/09/20 06:22:28;;;;;;;3.15;1.30;;;;;;;;;;5061904;28;20029;-87
2023/09/20 06:24:56;;;;;;;3.15;1.38;;;;;;;;;;5055003;28;20410;-86
2023/09/20 06:27:21;;;;;;;4.22;1.48;;;;;;;;;;5055279;28;21191;-86
2023/09/20 06:29:47;;;;;;;6.85;1.80;;;;;;;;;;5040423;28;20744;-86
2023/09/20 06:32:15;;;;;;;2.80;1.50;;;;;;;;;;5035669;28;20022;-86
2023/09/20 06:34:40;;;;;;;2.63;1.30;;;;;;;;;;5052110;28;20021;-86
2023/09/20 06:37:06;;;;;;;1.73;1.50;;;;;;;;;;5046379;28;20132;-86
2023/09/20 06:39:31;;;;;;;2.97;1.50;;;;;;;;;;5054090;28;20088;-86
2023/09/20 06:41:57;;;;;;;1.08;0.98;;;;;;;;;;5053031;28;20029;-87
2023/09/20 06:44:23;;;;;;;4.38;1.45;;;;;;;;;;5061907;28;20056;-87
2023/09/20 06:46:49;;;;;;;1.73;1.40;;;;;;;;;;5049320;28;20064;-86
2023/09/20 06:49:15;;;;;;;2.33;1.23;;;;;;;;;;5037935;28;20032;-86
2023/09/20 06:51:43;;;;;;;2.28;1.42;;;;;;;;;;5050922;28;20024;-86
2023/09/20 06:54:08;;;;;;;1.23;1.17;;;;;;;;;;5047248;28;20048;-85
2023/09/20 06:56:35;;;;;;;1.30;1.13;;;;;;;;;;5061787;28;20029;-86
2023/09/20 06:59:01;;;;;;;2.50;1.45;;;;;;;;;;5039685;28;20102;-86
2023/09/20 07:01:26;;;;;;;8.75;1.27;;;;;;;;;;5064535;28;20036;-86
2023/09/20 07:03:55;;;;;;;2.53;1.30;;;;;;;;;;5068334;28;20025;-86
2023/09/20 07:06:20;;;;;;;1.27;1.17;;;;;;;;;;5072286;28;20021;-86
2023/09/20 07:08:45;;;;;;;4.50;1.50;;;;;;;;;;5070501;28;20025;-87
2023/09/20 07:11:12;;;;;;;1.27;1.17;;;;;;;;;;5046782;28;20120;-87
2023/09/20 07:13:37;;;;;;;1.60;1.23;;;;;;;;;;5055361;28;20081;-88
2023/09/20 07:16:05;;;;;;;1.70;1.40;;;;;;;;;;5071034;28;20103;-87
2023/09/20 07:18:33;;;;;;;1.05;1.00;;;;;;;;;;5050571;28;20033;-87
2023/09/20 07:20:59;;;;;;;1.60;1.42;;;;;;;;;;5050050;28;20104;-88
2023/09/20 07:23:25;;;;;;;3.83;1.30;;;;;;;;;;5066906;28;20071;-87
2023/09/20 07:25:50;;;;;;;4.00;1.23;;;;;;;;;;5071210;28;20112;-88
2023/09/20 07:28:19;;;;;;;5.18;1.45;;;;;;;;;;5070761;28;20017;-88
2023/09/20 07:30:45;;;;;;;1.20;1.10;;;;;;;;;;5055928;28;20475;-88
2023/09/20 07:33:12;;;;;;;2.28;1.30;;;;;;;;;;5070346;28;20147;-87
2023/09/20 07:35:47;;;;;;;3.78;1.27;;;;;;;;;;5070148;28;20029;-88
2023/09/20 07:38:18;;;;;;;1.98;1.30;;;;;;;;;;5061648;28;20017;-88
2023/09/20 07:40:44;;;;;;;2.13;1.45;;;;;;;;;;5060728;28;20104;-88
2023/09/20 07:43:10;;;;;;;3.83;1.58;;;;;;;;;;5065650;28;20047;-88
2023/09/20 07:45:39;;;;;;;1.63;1.50;;;;;;;;;;5070869;28;20074;-88
2023/09/20 07:48:12;;;;;;;3.47;1.35;;;;;;;;;;5071275;28;20012;-88
2023/09/20 07:50:49;;;;;;;1.80;1.38;;;;;;;;;;5076004;28;20102;-87
2023/09/20 07:53:16;;;;;;;1.63;1.23;;;;;;;;;;5054189;28;20036;-87
2023/09/20 07:55:48;;;;;;;1.95;1.27;;;;;;;;;;5067164;28;20070;-87
2023/09/20 07:58:14;;;;;;;2.63;1.38;;;;;;;;;;5046360;28;20036;-88
2023/09/20 08:00:44;;;;;;;1.45;1.00;;;;;;;;;;5048100;28;20118;-87
2023/09/20 08:03:14;;;;;;;2.13;1.00;;;;;;;;;;5055458;28;20017;-88
2023/09/20 08:05:41;;;;;;;2.00;1.45;;;;;;;;;;5070011;28;20025;-87
2023/09/20 08:08:09;;;;;;;6.45;1.17;;;;;;;;;;5056254;28;20013;-87
2023/09/20 08:10:36;;;;;;;2.50;1.02;;;;;;;;;;5072880;28;20021;-87
2023/09/20 08:13:04;;;;;;;3.17;1.08;;;;;;;;;;5056390;28;20120;-88
2023/09/20 08:15:32;;;;;;;2.22;0.90;;;;;;;;;;5072523;28;20111;-88
2023/09/20 08:20:42;;;;;;;1.50;0.80;;;;;;;;;;5064192;28;20048;-88
2023/09/20 09:01:58;;;;;;;1.63;1.00;;;;;;;;;;5044248;28;20232;-89
2023/09/20 09:04:23;;;;;;;1.95;1.00;;;;;;;;;;5055710;28;20072;-89
2023/09/20 09:06:50;;;;;;;1.10;1.00;;;;;;;;;;5070972;28;20017;-89
2023/09/20 09:09:16;;;;;;;1.42;0.90;;;;;;;;;;5037389;28;20036;-89
2023/09/20 09:11:47;;;;;;;1.73;1.10;;;;;;;;;;5055202;28;20394;-89
2023/09/20 09:14:13;;;;;;;2.40;0.88;;;;;;;;;;5070303;28;20494;-89
2023/09/20 09:16:39;;;;;;;1.80;1.10;;;;;;;;;;5070391;28;20080;-89
2023/09/20 09:19:07;;;;;;;1.30;1.02;;;;;;;;;;5054468;28;20506;-89
2023/09/20 09:21:34;;;;;;;2.40;1.25;;;;;;;;;;5070226;28;20043;-89
2023/09/20 09:23:59;;;;;;;1.23;1.10;;;;;;;;;;5053710;28;20433;-89
2023/09/20 09:26:25;;;;;;;1.95;1.00;;;;;;;;;;5069374;28;20039;-89
2023/09/20 09:28:51;;;;;;;1.42;1.23;;;;;;;;;;5031924;28;20026;-89
2023/09/20 09:31:16;;;;;;;1.60;1.25;;;;;;;;;;5058035;28;20025;-89
2023/09/20 09:33:42;;;;;;;1.60;1.10;;;;;;;;;;5053367;28;20032;-89
2023/09/20 09:36:08;;;;;;;2.53;1.20;;;;;;;;;;5052841;28;20020;-89
2023/09/20 09:38:34;;;;;;;2.80;1.08;;;;;;;;;;5053082;28;20031;-90
2023/09/20 09:41:01;;;;;;;1.77;1.10;;;;;;;;;;5053189;28;20020;-90
2023/09/20 09:43:30;;;;;;;1.30;0.98;;;;;;;;;;5051733;28;20056;-89
2023/09/20 09:46:17;;;;;;;2.00;1.40;;;;;;;;;;5052204;28;20395;-89
2023/09/20 09:48:43;;;;;;;1.00;0.90;;;;;;;;;;5033088;28;20060;-89
2023/09/20 09:51:09;;;;;;;3.00;1.10;;;;;;;;;;5051123;28;20024;-89
2023/09/20 09:53:39;;;;;;;2.65;1.08;;;;;;;;;;5066852;28;20021;-89
2023/09/20 09:56:05;;;;;;;4.38;1.00;;;;;;;;;;5055991;28;20024;-89
2023/09/20 09:58:34;;;;;;;1.05;1.00;;;;;;;;;;5065622;28;20112;-89
2023/09/20 10:01:04;;;;;;;2.90;0.82;;;;;;;;;;5033776;28;20025;-89
2023/09/20 10:03:38;;;;;;;2.20;1.30;;;;;;;;;;5032963;28;20057;-90
2023/09/20 10:06:21;;;;;;;2.47;1.13;;;;;;;;;;5057392;28;20021;-89
2023/09/20 10:12:24;;;;;;;2.60;1.23;;;;;;;;;;5034218;28;20029;-89
2023/09/20 10:14:50;;;;;;;1.48;1.30;;;;;;;;;;5048765;28;20471;-89
2023/09/20 10:17:53;;;;;;;1.67;1.30;;;;;;;;;;5054544;28;20029;-88
2023/09/20 10:20:57;;;;;;;1.35;1.20;;;;;;;;;;5017430;28;20123;-91
2023/09/20 10:23:23;;;;;;;1.15;1.05;;;;;;;;;;5047926;28;20106;-89
2023/09/20 10:25:49;;;;;;;2.15;1.30;;;;;;;;;;5052959;28;20976;-89
2023/09/20 10:28:17;;;;;;;1.65;1.10;;;;;;;;;;5044474;28;20025;-89
2023/09/20 10:31:11;;;;;;;1.95;1.20;;;;;;;;;;5036769;28;20034;-90
2023/09/20 10:33:55;;;;;;;2.10;1.33;;;;;;;;;;5044948;28;20025;-89
2023/09/20 10:36:30;;;;;;;1.13;0.98;;;;;;;;;;5036321;28;20030;-89
2023/09/20 10:39:18;;;;;;;1.15;1.00;;;;;;;;;;5070052;28;20092;-89
2023/09/20 10:41:45;;;;;;;0.90;0.90;;;;;;;;;;5033198;28;20020;-88
2023/09/20 10:45:00;;;;;;;1.13;1.10;;;;;;;;;;5045745;28;20025;-88
2023/09/20 10:47:25;;;;;;;1.35;0.98;;;;;;;;;;5043090;28;20037;-89
2023/09/20 10:49:53;;;;;;;1.02;0.93;;;;;;;;;;5066104;28;20153;-86
2023/09/20 10:52:39;;;;;;;1.67;1.08;;;;;;;;;;5024970;28;20036;-86
2023/09/20 10:58:29;;;;;;;;;;;;;;;;;;5045536;28;20548;-87
2023/09/20 11:01:05;;;;;;;1.70;1.15;;;;;;;;;;5046527;28;20294;-87
2023/09/20 11:03:32;;;;;;;1.52;1.10;;;;;;;;;;5059912;28;20021;-87
2023/09/20 11:06:52;;;;;;;2.25;1.20;;;;;;;;;;5035443;28;20017;-87
2023/09/20 11:09:20;;;;;;;1.70;1.60;;;;;;;;;;5065828;28;20055;-87
2023/09/20 11:12:06;;;;;;;1.88;1.10;;;;;;;;;;5033938;28;20312;-87
2023/09/20 11:14:40;;;;;;;1.50;1.30;;;;;;;;;;5051120;28;20032;-86
2023/09/20 11:17:13;;;;;;;1.67;1.10;;;;;;;;;;5061254;28;20029;-87
2023/09/20 11:19:48;;;;;;;1.77;1.30;;;;;;;;;;5067930;28;20028;-87
2023/09/20 11:22:18;;;;;;;1.80;1.35;;;;;;;;;;5065290;28;20119;-87
2023/09/20 11:24:44;;;;;;;2.70;1.13;;;;;;;;;;5048967;28;20033;-87
2023/09/20 11:27:11;;;;;;;1.98;1.30;;;;;;;;;;5045102;28;20258;-87
2023/09/20 11:29:42;;;;;;;2.67;1.27;;;;;;;;;;5067746;28;20052;-88
2023/09/20 11:36:44;;;;;;;;;;;;;;;;;;;;;
2023/09/20 11:42:47;;;;;;;1.98;1.70;;;;;;;;;;4972200;28;20174;-87
2023/09/20 11:45:47;;;;;;;2.55;1.13;;;;;;;;;;5048786;28;20028;-88
2023/09/20 11:48:28;;;;;;;3.10;1.30;;;;;;;;;;5031881;28;20044;-87
2023/09/20 11:50:53;;;;;;;1.20;1.10;;;;;;;;;;5056947;28;20048;-88
2023/09/20 11:53:22;;;;;;;1.60;1.48;;;;;;;;;;5067930;28;20033;-88
2023/09/20 11:55:48;;;;;;;1.63;1.42;;;;;;;;;;5045145;28;20032;-87
2023/09/20 11:58:19;;;;;;;1.33;1.23;;;;;;;;;;5050898;28;20025;-87
2023/09/20 12:00:45;;;;;;;;;;;;;;;;;;5053795;28;20024;-87
2023/09/20 12:07:42;;;;;;;1.52;1.42;;;;;;;;;;4995438;28;20140;-88
2023/09/20 12:10:42;;;;;;;2.88;1.25;;;;;;;;;;4978286;28;20018;-87
2023/09/20 12:16:47;;;;;;;;;;;;;;;;;;;;;
2023/09/20 12:19:37;;;;;;;2.05;1.20;;;;;;;;;;4939111;29;20024;-87
2023/09/20 12:22:27;;;;;;;2.63;1.60;;;;;;;;;;4936822;28;20042;-87
2023/09/20 12:25:06;;;;;;;1.40;1.30;;;;;;;;;;4963856;28;20065;-88
2023/09/20 12:27:33;;;;;;;1.33;1.10;;;;;;;;;;5034394;28;20497;-88
2023/09/20 12:30:01;;;;;;;2.25;1.10;;;;;;;;;;5078423;28;20025;-87
2023/09/20 12:32:27;;;;;;;3.47;1.30;;;;;;;;;;5079675;28;20115;-87
2023/09/20 12:34:54;;;;;;;1.00;0.90;;;;;;;;;;5056698;28;20055;-87
2023/09/20 12:37:20;;;;;;;1.60;0.85;;;;;;;;;;5053405;28;20411;-87
2023/09/20 12:39:55;;;;;;;1.67;1.15;;;;;;;;;;5046112;28;20475;-87
2023/09/20 12:42:23;;;;;;;1.30;0.95;;;;;;;;;;5052834;28;20044;-87
2023/09/20 12:44:50;;;;;;;1.05;0.95;;;;;;;;;;5055982;28;20111;-87
2023/09/20 12:47:18;;;;;;;1.38;0.93;;;;;;;;;;5067986;28;20044;-87
2023/09/20 12:49:44;;;;;;;0.95;0.95;;;;;;;;;;5072757;28;20072;-87
2023/09/20 12:55:10;;;;;;;1.30;0.90;;;;;;;;;;5133115;23;20079;-85
2023/09/20 12:57:38;;;;;;;1.25;0.95;;;;;;;;;;5080040;28;20021;-85
2023/09/20 13:00:05;;;;;;;1.02;0.82;;;;;;;;;;5077056;28;20024;-83
2023/09/20 13:02:31;;;;;;;0.80;0.80;;;;;;;;;;5069539;28;20079;-83
2023/09/20 13:04:59;;;;;;;1.48;1.13;;;;;;;;;;5067080;28;20025;-85
2023/09/20 13:07:26;;;;;;;0.57;0.57;;;;;;;;;;5081632;28;20628;-84
2023/09/20 13:09:53;;;;;;;1.70;1.00;;;;;;;;;;5078708;28;20028;-85
2023/09/20 13:12:20;;;;;;;0.75;0.75;;;;;;;;;;5073284;28;20024;-86
2023/09/20 13:14:45;;;;;;;1.10;0.90;;;;;;;;;;5060244;28;20017;-84
2023/09/20 13:17:11;;;;;;;0.88;0.80;;;;;;;;;;5071876;28;20474;-82
2023/09/20 13:19:36;;;;;;;0.75;0.57;;;;;;;;;;5065689;28;20036;-85
2023/09/20 13:22:02;;;;;;;1.25;1.05;;;;;;;;;;5073301;28;20020;-86
2023/09/20 13:24:27;;;;;;;1.08;1.00;;;;;;;;;;5082708;28;20052;-86
2023/09/20 13:26:52;;;;;;;1.17;1.08;;;;;;;;;;5074981;28;20474;-85
2023/09/20 13:29:18;;;;;;;1.02;1.00;;;;;;;;;;5076120;28;20036;-84
2023/09/20 13:31:44;;;;;;;1.08;0.90;;;;;;;;;;5071288;28;20025;-86
2023/09/20 13:34:14;;;;;;;3.10;1.05;;;;;;;;;;5063083;28;20024;-86
2023/09/20 13:36:39;;;;;;;1.40;1.02;;;;;;;;;;5062578;28;20020;-87
2023/09/20 13:39:05;;;;;;;4.65;1.17;;;;;;;;;;5076792;28;20389;-85
2023/09/20 13:41:30;;;;;;;2.78;1.20;;;;;;;;;;5079623;28;20021;-85
2023/09/20 13:43:57;;;;;;;2.30;1.60;;;;;;;;;;5077794;28;20163;-83
2023/09/20 13:46:25;;;;;;;2.13;1.40;;;;;;;;;;5072498;28;20092;-85
2023/09/20 13:48:51;;;;;;;2.70;0.90;;;;;;;;;;5075874;28;20044;-82
2023/09/20 13:51:17;;;;;;;2.47;0.95;;;;;;;;;;5072168;28;20474;-83
2023/09/20 13:53:43;;;;;;;4.40;1.20;;;;;;;;;;5074304;28;20024;-81
2023/09/20 13:56:09;;;;;;;1.08;0.90;;;;;;;;;;5070286;28;20029;-84
2023/09/20 13:58:35;;;;;;;1.17;1.00;;;;;;;;;;5069106;28;20030;-83
2023/09/20 14:01:03;;;;;;;2.08;1.13;;;;;;;;;;5073582;28;20021;-83
2023/09/20 14:03:28;;;;;;;1.60;1.23;;;;;;;;;;5072481;28;20458;-81
2023/09/20 14:05:54;;;;;;;2.53;1.33;;;;;;;;;;5077098;28;20024;-82
2023/09/20 14:08:19;;;;;;;1.40;1.17;;;;;;;;;;5079803;28;20024;-82
2023/09/20 14:10:45;;;;;;;4.35;1.67;;;;;;;;;;5071404;28;20063;-85
2023/09/20 14:13:10;;;;;;;1.73;0.93;;;;;;;;;;5056901;28;20025;-82
2023/09/20 14:15:36;;;;;;;0.73;0.73;;;;;;;;;;5072719;28;20036;-82
2023/09/20 14:18:01;;;;;;;1.13;1.00;;;;;;;;;;5078814;28;20017;-82
2023/09/20 14:20:28;;;;;;;1.60;0.90;;;;;;;;;;5073382;28;20032;-82
2023/09/20 14:22:54;;;;;;;1.40;1.30;;;;;;;;;;5073590;28;20085;-81
2023/09/20 14:25:21;;;;;;;1.02;0.88;;;;;;;;;;5078924;28;20032;-84
2023/09/20 14:27:46;;;;;;;3.45;1.17;;;;;;;;;;5072409;28;20052;-83
2023/09/20 14:30:18;;;;;;;0.82;0.77;;;;;;;;;;5081718;28;20024;-83
2023/09/20 14:32:48;;;;;;;1.60;1.00;;;;;;;;;;5064327;28;20028;-84
2023/09/20 14:35:15;;;;;;;1.38;1.00;;;;;;;;;;5076252;28;20036;-83
2023/09/20 14:37:43;;;;;;;1.10;1.00;;;;;;;;;;5077188;28;20024;-80
2023/09/20 14:40:18;;;;;;;1.55;1.33;;;;;;;;;;5057617;28;20025;-82
2023/09/20 14:42:44;;;;;;;1.08;1.00;;;;;;;;;;5070135;28;20044;-83
2023/09/20 14:45:16;;;;;;;1.20;1.10;;;;;;;;;;5081371;28;20021;-82
2023/09/20 14:47:45;;;;;;;0.93;0.85;;;;;;;;;;5059901;28;20024;-82
2023/09/20 14:50:15;;;;;;;1.95;1.13;;;;;;;;;;5080679;28;20061;-81
2023/09/20 14:52:42;;;;;;;2.72;1.02;;;;;;;;;;5086843;28;20031;-79
2023/09/20 14:55:12;;;;;;;1.15;1.05;;;;;;;;;;5083114;28;20059;-79
2023/09/20 14:57:42;;;;;;;1.17;1.07;;;;;;;;;;5085112;28;20016;-79
2023/09/20 15:00:16;;;;;;;2.00;0.93;;;;;;;;;;5083528;28;20024;-79
2023/09/20 15:02:41;;;;;;;1.08;0.73;;;;;;;;;;5072860;28;20049;-79
2023/09/20 15:05:07;;;;;;;1.05;0.90;;;;;;;;;;5075436;28;20039;-82
2023/09/20 15:07:33;;;;;;;1.10;1.00;;;;;;;;;;5053350;28;20021;-81
2023/09/20 15:10:00;;;;;;;0.73;0.73;;;;;;;;;;5074829;28;20158;-81
2023/09/20 15:12:26;;;;;;;0.80;0.80;;;;;;;;;;5064321;28;20374;-81
2023/09/20 15:14:52;;;;;;;0.90;0.77;;;;;;;;;;5072945;28;20028;-81
2023/09/20 15:17:17;;;;;;;0.80;0.80;;;;;;;;;;5071794;28;20063;-82
2023/09/20 15:19:42;;;;;;;2.55;0.88;;;;;;;;;;5063320;28;20710;-80
2023/09/20 15:22:08;;;;;;;0.70;0.70;;;;;;;;;;5050789;28;20035;-81
2023/09/20 15:24:33;;;;;;;1.15;1.08;;;;;;;;;;5061118;28;20032;-82
2023/09/20 15:26:58;;;;;;;0.85;0.85;;;;;;;;;;5065207;28;20020;-81
2023/09/20 15:29:24;;;;;;;1.00;0.80;;;;;;;;;;5068759;28;20028;-82
2023/09/20 15:31:50;;;;;;;1.52;0.88;;;;;;;;;;5060412;28;20035;-82
2023/09/20 15:34:16;;;;;;;0.88;0.80;;;;;;;;;;5073663;28;20037;-82
2023/09/20 15:36:41;;;;;;;0.88;0.70;;;;;;;;;;5080052;28;20120;-82
2023/09/20 15:39:07;;;;;;;1.15;0.80;;;;;;;;;;5077908;28;20023;-83
2023/09/20 15:41:35;;;;;;;0.70;0.70;;;;;;;;;;5056377;28;20033;-81
2023/09/20 15:44:04;;;;;;;1.05;0.95;;;;;;;;;;5073643;28;20032;-81
2023/09/20 15:46:30;;;;;;;0.90;0.75;;;;;;;;;;5066772;28;20527;-82
2023/09/20 15:48:57;;;;;;;1.25;0.90;;;;;;;;;;5069083;28;20081;-81
2023/09/20 15:51:22;;;;;;;0.80;0.80;;;;;;;;;;5065290;28;20672;-83
2023/09/20 15:53:47;;;;;;;2.03;1.20;;;;;;;;;;5055393;28;20029;-83
2023/09/20 15:56:15;;;;;;;1.40;0.95;;;;;;;;;;5064536;28;20490;-81
2023/09/20 15:58:40;;;;;;;1.23;0.98;;;;;;;;;;5059068;28;20027;-82
2023/09/20 16:01:05;;;;;;;0.73;0.73;;;;;;;;;;5046992;28;20020;-81